Time;durP1;ratioP1;P1;durP2;ratioP2;P2;SDS_P1;SDS_P2;PMS_P1;PMS_P2;Temp;Humidity;BMP_temperature;BMP_pressure;BME280_temperature;BME280_humidity;BME280_pressure;Samples;Min_cycle;Max_cycle;Signal;HPM_P1;HPM_P2
2022/02/26 00:01:25;;;;;;;6.80;2.05;;;;;;;20.52;40.57;102263.25;5003021;28;20113;-54
2022/02/26 00:03:51;;;;;;;4.93;1.40;;;;;;;20.32;40.84;102260.56;5003385;28;20474;-51
2022/02/26 00:06:16;;;;;;;6.07;1.80;;;;;;;20.44;40.82;102266.53;5000734;28;20060;-47
2022/02/26 00:08:42;;;;;;;5.25;1.55;;;;;;;20.69;40.40;102266.44;5003993;28;20511;-50
2022/02/26 00:11:08;;;;;;;8.75;2.08;;;;;;;20.54;39.08;102274.69;5000977;28;20502;-54
2022/02/26 00:13:33;;;;;;;5.10;1.58;;;;;;;20.51;40.02;102283.41;5003365;28;20041;-51
2022/02/26 00:15:59;;;;;;;4.40;1.42;;;;;;;20.50;39.23;102289.94;5003358;28;20121;-50
2022/02/26 00:18:24;;;;;;;35.25;24.00;;;;;;;20.43;39.68;102289.41;5002979;28;20022;-54
2022/02/26 00:20:50;;;;;;;104.97;65.80;;;;;;;20.48;40.07;102292.13;5002641;28;20026;-49
2022/02/26 00:23:16;;;;;;;44.50;30.58;;;;;;;20.79;39.50;102304.53;5003050;28;20029;-53
2022/02/26 00:25:42;;;;;;;41.35;27.38;;;;;;;21.00;39.57;102297.06;5000799;28;20026;-52
2022/02/26 00:28:07;;;;;;;15.77;8.20;;;;;;;21.32;38.91;102306.72;5000799;28;20030;-54
2022/02/26 00:30:33;;;;;;;9.93;4.30;;;;;;;21.31;38.98;102314.09;5001569;28;20037;-51
2022/02/26 00:32:58;;;;;;;9.27;2.78;;;;;;;21.34;38.86;102313.53;5002048;28;20037;-51
2022/02/26 00:35:24;;;;;;;5.07;1.55;;;;;;;21.38;38.72;102317.34;5003533;28;20022;-53
2022/02/26 00:37:49;;;;;;;8.20;2.08;;;;;;;21.50;38.20;102324.34;4984901;28;20025;-52
2022/02/26 00:40:15;;;;;;;80.35;46.67;;;;;;;21.45;38.29;102327.91;4999217;28;20570;-51
2022/02/26 00:42:41;;;;;;;104.18;61.17;;;;;;;21.42;38.08;102332.03;5003843;28;20029;-49
2022/02/26 00:45:08;;;;;;;48.38;26.40;;;;;;;21.25;37.74;102331.59;5003707;28;20649;-51
2022/02/26 00:47:34;;;;;;;48.78;28.17;;;;;;;20.99;37.78;102336.31;5004362;28;20479;-49
2022/02/26 00:50:00;;;;;;;82.03;43.25;;;;;;;20.88;37.83;102332.03;5004625;28;20026;-47
2022/02/26 00:52:30;;;;;;;115.63;66.88;;;;;;;20.54;38.31;102350.09;5000065;28;20044;-52
2022/02/26 00:54:57;;;;;;;131.20;76.57;;;;;;;20.52;38.03;102344.94;4996888;28;20026;-50
2022/02/26 00:57:23;;;;;;;128.55;80.40;;;;;;;20.30;38.80;102353.41;5002221;28;20033;-51
2022/02/26 00:59:49;;;;;;;197.52;123.97;;;;;;;20.41;38.74;102352.31;5000822;28;20108;-52
2022/02/26 01:02:17;;;;;;;128.48;88.57;;;;;;;20.51;38.30;102351.47;5004412;28;20144;-48
2022/02/26 01:04:43;;;;;;;29.63;19.77;;;;;;;19.91;38.30;102353.13;5003424;28;20398;-49
2022/02/26 01:07:09;;;;;;;23.42;12.10;;;;;;;19.35;39.67;102355.72;5004378;28;20030;-47
2022/02/26 01:09:36;;;;;;;11.38;5.50;;;;;;;19.47;39.74;102360.94;5006687;28;21627;-48
2022/02/26 01:12:02;;;;;;;8.30;3.28;;;;;;;19.56;39.60;102360.16;5001944;28;20054;-50
2022/02/26 01:14:28;;;;;;;8.30;2.60;;;;;;;19.37;39.55;102371.78;5002109;28;20033;-50
2022/02/26 01:16:54;;;;;;;14.15;2.88;;;;;;;19.29;39.21;102373.13;5002154;28;20646;-50
2022/02/26 01:19:19;;;;;;;5.78;2.42;;;;;;;18.96;39.25;102375.16;4999557;28;20065;-53
2022/02/26 01:21:45;;;;;;;56.63;32.85;;;;;;;18.79;38.77;102379.16;5006548;28;20030;-48
2022/02/26 01:24:12;;;;;;;85.53;50.80;;;;;;;18.41;39.20;102376.44;5006915;28;20045;-53
2022/02/26 01:26:39;;;;;;;54.97;33.17;;;;;;;18.30;39.48;102382.06;5001541;28;20033;-53
2022/02/26 01:29:05;;;;;;;25.35;14.23;;;;;;;18.19;39.73;102389.31;5003963;28;20061;-53
2022/02/26 01:31:32;;;;;;;17.08;8.55;;;;;;;18.16;38.77;102389.84;5004834;28;20099;-48
2022/02/26 01:33:58;;;;;;;14.15;5.97;;;;;;;17.76;38.86;102391.09;5003741;28;20073;-55
2022/02/26 01:36:25;;;;;;;9.82;3.42;;;;;;;17.07;39.30;102395.44;5004452;28;20061;-51
2022/02/26 01:38:50;;;;;;;11.48;2.90;;;;;;;16.58;39.65;102401.50;5002587;28;20024;-52
2022/02/26 01:41:16;;;;;;;11.68;2.65;;;;;;;16.16;40.02;102400.28;5008233;28;20025;-49
2022/02/26 01:43:41;;;;;;;13.73;2.88;;;;;;;15.77;40.46;102394.72;5008291;28;20172;-48
2022/02/26 01:46:10;;;;;;;12.05;2.28;;;;;;;15.41;40.85;102404.84;5008455;28;20279;-50
2022/02/26 01:48:36;;;;;;;8.07;2.70;;;;;;;15.04;41.48;102414.31;5005989;28;20537;-51
2022/02/26 01:51:03;;;;;;;15.20;2.63;;;;;;;14.65;42.08;102410.47;5001194;28;20037;-51
2022/02/26 01:53:29;;;;;;;11.27;2.42;;;;;;;14.33;42.34;102410.78;5004071;28;20498;-49
2022/02/26 01:55:55;;;;;;;12.68;3.17;;;;;;;13.96;42.99;102417.38;5007206;28;20025;-49
2022/02/26 01:58:21;;;;;;;10.15;3.25;;;;;;;13.67;43.63;102414.47;5004974;28;20018;-52
2022/02/26 02:00:47;;;;;;;12.88;3.00;;;;;;;13.41;43.92;102421.00;5001903;28;20080;-49
2022/02/26 02:03:13;;;;;;;7.20;2.50;;;;;;;13.11;44.40;102425.50;5005429;28;20033;-51
2022/02/26 02:05:39;;;;;;;12.10;2.40;;;;;;;12.82;44.78;102425.16;5003311;28;20407;-51
2022/02/26 02:08:05;;;;;;;9.15;2.25;;;;;;;12.57;45.29;102433.28;5006214;28;20831;-48
2022/02/26 02:10:31;;;;;;;13.48;2.30;;;;;;;12.29;45.84;102431.00;5008005;28;20049;-50
2022/02/26 02:12:58;;;;;;;12.93;2.72;;;;;;;11.95;46.42;102429.56;5005841;28;20041;-54
2022/02/26 02:15:34;;;;;;;13.25;2.78;;;;;;;11.54;47.42;102427.28;5008350;28;20037;-50
2022/02/26 02:18:00;;;;;;;16.25;2.80;;;;;;;11.41;47.71;102432.72;5006438;28;20030;-47
2022/02/26 02:20:26;;;;;;;19.90;3.05;;;;;;;11.17;48.34;102434.25;5003002;28;20022;-47
2022/02/26 02:22:51;;;;;;;15.48;2.90;;;;;;;10.97;48.60;102434.28;5005306;28;20520;-47
2022/02/26 02:25:18;;;;;;;13.75;2.50;;;;;;;10.70;49.24;102440.72;5006055;28;20076;-49
2022/02/26 02:27:43;;;;;;;13.40;2.80;;;;;;;10.59;49.65;102432.28;5004909;28;20461;-49
2022/02/26 02:30:10;;;;;;;12.43;3.42;;;;;;;10.49;49.64;102444.44;5002541;28;20061;-46
2022/02/26 02:32:36;;;;;;;14.88;2.60;;;;;;;10.34;50.66;102449.16;5003247;28;20156;-47
2022/02/26 02:35:01;;;;;;;10.75;3.00;;;;;;;10.18;50.76;102445.00;5000635;28;20108;-50
2022/02/26 02:37:27;;;;;;;13.60;3.03;;;;;;;10.08;50.89;102449.94;5005289;28;20112;-46
2022/02/26 02:39:52;;;;;;;15.35;3.38;;;;;;;9.94;51.26;102455.25;5005086;28;20434;-48
2022/02/26 02:42:18;;;;;;;15.60;2.72;;;;;;;9.87;51.89;102451.72;5007652;28;20547;-46
2022/02/26 02:44:44;;;;;;;11.07;2.80;;;;;;;9.78;52.18;102462.81;5007752;28;20014;-46
2022/02/26 02:47:09;;;;;;;11.80;2.40;;;;;;;9.67;52.16;102466.88;5004732;28;20116;-51
2022/02/26 02:49:35;;;;;;;18.33;3.53;;;;;;;9.59;52.52;102467.06;5000658;28;20101;-46
2022/02/26 02:52:01;;;;;;;8.40;2.60;;;;;;;9.53;52.98;102467.88;5005461;28;20033;-49
2022/02/26 02:54:27;;;;;;;14.35;2.70;;;;;;;9.51;53.05;102476.06;5004647;28;20096;-46
2022/02/26 02:56:53;;;;;;;17.90;3.72;;;;;;;9.42;53.35;102479.97;5006224;28;20329;-47
2022/02/26 02:59:18;;;;;;;13.73;2.80;;;;;;;9.34;53.64;102475.59;5004894;28;20030;-46
2022/02/26 03:01:44;;;;;;;15.38;3.45;;;;;;;9.22;53.70;102482.53;5006029;28;20025;-50
2022/02/26 03:04:10;;;;;;;14.43;2.90;;;;;;;9.20;54.17;102484.56;5002156;28;20041;-49
2022/02/26 03:06:35;;;;;;;18.42;2.88;;;;;;;9.19;54.01;102484.78;5008016;28;20021;-51
2022/02/26 03:09:01;;;;;;;16.33;3.45;;;;;;;9.13;54.46;102491.72;5002816;28;20057;-49
2022/02/26 03:11:27;;;;;;;13.98;3.38;;;;;;;9.10;54.75;102494.78;5007980;28;20025;-46
2022/02/26 03:13:53;;;;;;;15.85;3.75;;;;;;;9.10;54.59;102500.13;5002882;28;20030;-46
2022/02/26 03:16:18;;;;;;;12.88;3.10;;;;;;;9.08;54.39;102508.34;5007419;28;20438;-51
2022/02/26 03:18:44;;;;;;;20.80;3.40;;;;;;;9.02;54.88;102509.13;5004554;28;20495;-48
2022/02/26 03:21:10;;;;;;;16.02;3.25;;;;;;;8.94;55.06;102511.13;5006481;28;20040;-46
2022/02/26 03:23:36;;;;;;;20.42;4.03;;;;;;;8.91;54.77;102519.53;5006729;28;20026;-46
2022/02/26 03:26:03;;;;;;;18.58;3.53;;;;;;;8.85;55.28;102518.47;5005938;28;20514;-50
2022/02/26 03:28:28;;;;;;;16.65;2.85;;;;;;;8.71;55.64;102520.19;5007052;28;20050;-48
2022/02/26 03:30:54;;;;;;;17.85;2.70;;;;;;;8.62;55.87;102524.03;5005062;28;20056;-49
2022/02/26 03:33:19;;;;;;;18.20;3.08;;;;;;;8.54;55.95;102526.81;5016377;22;20041;-47
2022/02/26 03:35:45;;;;;;;12.55;2.65;;;;;;;8.52;56.65;102539.53;5024473;28;20040;-45
2022/02/26 03:38:11;;;;;;;16.48;3.70;;;;;;;8.43;56.55;102538.81;5026713;28;20021;-45
2022/02/26 03:40:37;;;;;;;15.23;3.08;;;;;;;8.37;56.72;102542.25;5021667;28;20031;-46
2022/02/26 03:43:03;;;;;;;12.73;2.95;;;;;;;8.28;57.04;102548.72;5021792;28;20061;-45
2022/02/26 03:45:29;;;;;;;20.90;3.00;;;;;;;8.20;57.48;102548.81;5006824;28;20065;-45
2022/02/26 03:47:55;;;;;;;20.10;3.20;;;;;;;8.16;57.20;102560.91;5009422;28;20022;-46
2022/02/26 03:50:20;;;;;;;16.33;3.15;;;;;;;8.19;57.51;102556.00;5005702;28;20057;-45
2022/02/26 03:52:46;;;;;;;20.50;3.47;;;;;;;8.19;57.57;102569.34;5007111;28;20116;-46
2022/02/26 03:55:12;;;;;;;18.23;2.75;;;;;;;8.22;57.47;102572.66;5005962;28;20034;-45
2022/02/26 03:57:38;;;;;;;21.35;3.33;;;;;;;8.17;57.32;102575.91;5007218;28;20108;-45
2022/02/26 04:00:06;;;;;;;15.35;2.78;;;;;;;8.10;57.68;102578.50;5007143;28;20649;-44
2022/02/26 04:02:32;;;;;;;21.15;4.07;;;;;;;8.08;57.75;102582.38;5005335;28;20025;-46
2022/02/26 04:04:57;;;;;;;20.20;3.67;;;;;;;8.08;58.09;102585.03;5006515;28;20036;-45
2022/02/26 04:07:23;;;;;;;15.50;2.95;;;;;;;8.08;58.18;102590.38;5005242;28;20022;-45
2022/02/26 04:09:48;;;;;;;15.35;2.95;;;;;;;8.04;57.83;102595.25;5008817;28;20068;-45
2022/02/26 04:12:14;;;;;;;18.13;3.22;;;;;;;8.00;58.25;102596.63;5008299;28;20395;-46
2022/02/26 04:14:39;;;;;;;20.38;2.90;;;;;;;7.96;58.29;102607.88;5006296;28;20044;-46
2022/02/26 04:17:05;;;;;;;19.02;3.08;;;;;;;7.96;58.39;102615.88;5010328;22;20042;-48
2022/02/26 04:19:30;;;;;;;15.98;3.10;;;;;;;7.95;58.65;102609.72;4996672;28;20030;-52
2022/02/26 04:21:56;;;;;;;22.33;3.25;;;;;;;7.89;58.38;102618.44;4999927;28;20130;-48
2022/02/26 04:24:22;;;;;;;16.45;3.33;;;;;;;7.84;58.63;102623.50;5002021;28;20163;-50
2022/02/26 04:26:47;;;;;;;18.15;3.97;;;;;;;7.85;58.64;102622.50;5009763;28;20022;-49
2022/02/26 04:29:13;;;;;;;18.67;3.10;;;;;;;7.84;58.65;102632.34;5032758;23;20041;-49
2022/02/26 04:31:39;;;;;;;17.85;3.38;;;;;;;7.83;58.92;102638.69;5023403;28;20029;-47
2022/02/26 04:34:04;;;;;;;19.27;4.00;;;;;;;7.75;59.01;102643.31;5025339;28;20394;-46
2022/02/26 04:36:31;;;;;;;18.38;4.80;;;;;;;7.71;59.49;102642.81;5025356;28;20025;-46
2022/02/26 04:38:56;;;;;;;14.80;3.20;;;;;;;7.73;59.54;102656.00;5022253;28;20033;-46
2022/02/26 04:41:22;;;;;;;21.10;3.83;;;;;;;7.70;59.52;102667.03;4998678;28;20026;-50
2022/02/26 04:43:47;;;;;;;17.17;3.08;;;;;;;7.69;59.26;102665.38;5000254;28;20081;-49
2022/02/26 04:46:13;;;;;;;18.55;3.63;;;;;;;7.63;59.64;102672.25;5001549;28;20018;-47
2022/02/26 04:48:39;;;;;;;17.67;4.50;;;;;;;7.61;59.69;102682.28;4999016;28;20026;-47
2022/02/26 04:51:08;;;;;;;13.27;3.47;;;;;;;7.60;59.77;102679.81;4997936;28;20108;-47
2022/02/26 04:53:35;;;;;;;13.20;3.45;;;;;;;7.56;59.94;102690.84;5000575;28;20375;-49
2022/02/26 04:56:00;;;;;;;24.00;4.43;;;;;;;7.53;59.99;102699.19;4998399;28;20033;-48
2022/02/26 04:58:27;;;;;;;13.25;3.08;;;;;;;7.52;59.85;102696.69;5002126;28;20022;-48
2022/02/26 05:00:53;;;;;;;19.50;3.80;;;;;;;7.51;60.46;102703.88;5001953;28;20033;-47
2022/02/26 05:03:19;;;;;;;17.33;3.05;;;;;;;7.48;60.36;102706.06;5003935;28;20038;-47
2022/02/26 05:05:44;;;;;;;19.92;4.07;;;;;;;7.45;60.52;102715.28;5004949;28;20030;-48
2022/02/26 05:08:10;;;;;;;20.20;3.58;;;;;;;7.45;60.33;102715.28;4997363;28;20034;-49
2022/02/26 05:10:36;;;;;;;23.70;3.88;;;;;;;7.47;60.43;102715.09;4998245;28;20030;-49
2022/02/26 05:13:01;;;;;;;19.48;3.67;;;;;;;7.43;60.37;102714.63;5001157;28;20034;-46
2022/02/26 05:15:27;;;;;;;16.55;3.20;;;;;;;7.42;60.48;102723.63;5001407;28;20037;-47
2022/02/26 05:17:52;;;;;;;25.83;4.13;;;;;;;7.43;60.45;102722.63;5002740;28;20018;-48
2022/02/26 05:20:18;;;;;;;17.05;4.43;;;;;;;7.38;61.02;102730.34;5003279;28;20030;-47
2022/02/26 05:22:43;;;;;;;15.15;3.90;;;;;;;7.37;60.73;102738.53;5002382;28;20036;-49
2022/02/26 05:25:10;;;;;;;20.42;4.05;;;;;;;7.38;61.18;102742.84;4999425;28;20394;-49
2022/02/26 05:27:37;;;;;;;21.35;3.67;;;;;;;7.42;60.83;102741.47;4998710;28;20037;-46
2022/02/26 05:30:04;;;;;;;19.55;3.70;;;;;;;7.42;61.10;102752.16;5000880;28;20476;-49
2022/02/26 05:32:30;;;;;;;18.42;3.30;;;;;;;7.40;60.95;102757.66;5003063;28;20042;-46
2022/02/26 05:34:56;;;;;;;15.30;3.20;;;;;;;7.39;60.87;102756.00;4999406;28;20028;-49
2022/02/26 05:37:22;;;;;;;15.85;2.88;;;;;;;7.39;61.25;102766.66;4996812;28;20028;-46
2022/02/26 05:39:47;;;;;;;19.20;3.80;;;;;;;7.36;61.39;102775.03;5004995;28;20097;-47
2022/02/26 05:42:14;;;;;;;24.88;4.15;;;;;;;7.30;61.32;102782.88;5002607;28;20057;-49
2022/02/26 05:44:40;;;;;;;17.50;3.80;;;;;;;7.22;61.44;102792.59;5004270;28;20030;-47
2022/02/26 05:47:06;;;;;;;24.63;5.30;;;;;;;7.13;62.07;102798.16;5002498;28;20037;-51
2022/02/26 05:49:32;;;;;;;22.65;4.05;;;;;;;7.03;62.09;102805.56;5006421;28;20040;-51
2022/02/26 05:51:57;;;;;;;12.00;2.97;;;;;;;6.97;62.37;102809.72;5002888;28;20026;-46
2022/02/26 05:54:23;;;;;;;14.90;3.42;;;;;;;6.95;62.45;102807.22;5006876;28;20076;-46
2022/02/26 05:56:48;;;;;;;14.57;3.65;;;;;;;6.90;62.52;102814.91;5003923;28;20088;-49
2022/02/26 05:59:14;;;;;;;19.20;3.40;;;;;;;6.88;62.54;102808.94;5001057;28;20025;-46
2022/02/26 06:01:39;;;;;;;20.58;3.85;;;;;;;6.83;62.64;102824.63;5003261;28;20064;-46
2022/02/26 06:04:06;;;;;;;22.15;4.28;;;;;;;6.78;62.81;102824.28;5005560;28;20030;-47
2022/02/26 06:06:31;;;;;;;20.85;3.75;;;;;;;6.73;62.90;102826.66;5004277;28;20030;-49
2022/02/26 06:08:57;;;;;;;18.23;3.40;;;;;;;6.70;63.18;102840.31;5001482;28;20038;-47
2022/02/26 06:11:22;;;;;;;16.48;3.72;;;;;;;6.71;62.85;102841.16;5007268;28;20144;-46
2022/02/26 06:13:48;;;;;;;13.35;4.22;;;;;;;6.70;63.06;102850.13;5001324;28;20030;-47
2022/02/26 06:16:15;;;;;;;16.90;3.53;;;;;;;6.66;63.22;102860.31;5004444;28;20475;-48
2022/02/26 06:18:41;;;;;;;15.02;3.38;;;;;;;6.64;63.24;102864.94;5007369;28;20463;-47
2022/02/26 06:21:06;;;;;;;18.75;3.22;;;;;;;6.62;63.65;102864.28;5003306;28;20022;-50
2022/02/26 06:23:32;;;;;;;20.30;3.30;;;;;;;6.61;63.56;102873.28;5005273;28;20528;-50
2022/02/26 06:25:57;;;;;;;20.27;4.57;;;;;;;6.57;63.86;102872.81;5002874;28;20164;-47
2022/02/26 06:28:23;;;;;;;15.18;3.33;;;;;;;6.55;64.10;102884.63;5001602;28;20022;-52
2022/02/26 06:30:48;;;;;;;10.98;3.47;;;;;;;6.51;64.34;102884.13;5005280;28;20037;-48
2022/02/26 06:33:14;;;;;;;19.38;4.97;;;;;;;6.48;64.17;102881.00;5006294;28;20392;-48
2022/02/26 06:35:41;;;;;;;16.48;3.83;;;;;;;6.50;64.45;102889.63;5003832;28;20038;-49
2022/02/26 06:38:07;;;;;;;21.58;3.92;;;;;;;6.50;64.54;102890.47;5005645;28;20076;-46
2022/02/26 06:40:32;;;;;;;22.90;4.07;;;;;;;6.51;64.58;102896.63;4997989;28;20034;-50
2022/02/26 06:42:58;;;;;;;19.42;4.30;;;;;;;6.48;64.33;102910.28;4997766;28;20042;-48
2022/02/26 06:45:23;;;;;;;22.70;4.70;;;;;;;6.48;64.54;102910.28;5001159;28;20025;-49
2022/02/26 06:47:49;;;;;;;15.32;3.60;;;;;;;6.48;64.53;102920.94;5004280;28;20065;-46
2022/02/26 06:50:15;;;;;;;20.80;3.95;;;;;;;6.50;64.55;102926.91;5002334;28;20064;-49
2022/02/26 06:52:40;;;;;;;17.98;4.38;;;;;;;6.54;64.61;102937.06;5000917;28;20547;-50
2022/02/26 06:55:06;;;;;;;17.67;3.05;;;;;;;6.54;64.52;102931.75;4999620;28;20022;-49
2022/02/26 06:57:32;;;;;;;15.52;3.40;;;;;;;6.56;64.28;102939.56;5001727;28;20076;-47
2022/02/26 06:59:57;;;;;;;19.42;4.47;;;;;;;6.59;64.58;102944.53;4998184;28;20030;-49
2022/02/26 07:02:23;;;;;;;16.60;3.50;;;;;;;6.61;64.60;102950.53;5003075;28;20040;-52
2022/02/26 07:04:48;;;;;;;17.63;3.70;;;;;;;6.60;64.66;102963.03;5004144;28;20510;-48
2022/02/26 07:07:14;;;;;;;16.10;3.17;;;;;;;6.56;64.56;102959.03;4995011;28;20451;-50
2022/02/26 07:09:41;;;;;;;20.27;3.90;;;;;;;6.55;64.50;102969.84;5004777;28;20041;-48
2022/02/26 07:12:07;;;;;;;17.02;3.78;;;;;;;6.50;64.71;102974.84;5000923;28;20114;-50
2022/02/26 07:14:33;;;;;;;18.63;3.38;;;;;;;6.52;64.57;102987.00;5002121;28;20030;-47
2022/02/26 07:16:58;;;;;;;16.83;4.00;;;;;;;6.51;64.94;102987.19;4995662;28;20041;-47
2022/02/26 07:19:24;;;;;;;14.85;3.35;;;;;;;6.45;64.98;102996.63;5003056;28;20030;-50
2022/02/26 07:21:49;;;;;;;25.80;3.72;;;;;;;6.45;65.40;103001.13;5001426;28;20472;-47
2022/02/26 07:24:16;;;;;;;15.43;3.70;;;;;;;6.46;65.04;102994.81;5002386;28;20026;-48
2022/02/26 07:26:41;;;;;;;17.98;3.95;;;;;;;6.50;65.03;103009.47;5003267;28;20088;-51
2022/02/26 07:29:07;;;;;;;22.38;4.07;;;;;;;6.54;65.01;103006.31;5005107;28;20423;-47
2022/02/26 07:31:33;;;;;;;18.23;4.82;;;;;;;6.55;64.83;103018.63;4998599;28;20510;-49
2022/02/26 07:33:58;;;;;;;15.93;3.40;;;;;;;6.55;64.91;103021.28;5003088;28;20096;-50
2022/02/26 07:36:24;;;;;;;13.73;3.40;;;;;;;6.56;65.10;103022.97;5002444;28;20038;-49
2022/02/26 07:38:49;;;;;;;12.18;3.30;;;;;;;6.57;64.89;103029.13;5003255;28;20316;-47
2022/02/26 07:41:15;;;;;;;15.07;3.70;;;;;;;6.58;64.88;103036.09;5002984;28;20024;-46
2022/02/26 07:43:40;;;;;;;15.13;3.60;;;;;;;6.60;64.99;103039.44;5000163;28;20022;-49
2022/02/26 07:46:06;;;;;;;16.52;3.25;;;;;;;6.60;65.09;103044.75;5001328;28;20438;-48
2022/02/26 07:48:33;;;;;;;19.35;3.17;;;;;;;6.59;64.76;103045.75;5001863;28;20021;-50
2022/02/26 07:50:59;;;;;;;17.13;2.95;;;;;;;6.55;65.25;103053.25;5001615;28;20088;-52
2022/02/26 07:53:25;;;;;;;13.60;3.83;;;;;;;6.56;65.29;103062.91;5001819;28;20612;-47
2022/02/26 07:55:51;;;;;;;12.75;3.50;;;;;;;6.57;65.24;103074.41;5001289;28;20118;-47
2022/02/26 07:58:17;;;;;;;19.80;4.03;;;;;;;6.58;65.23;103076.88;5000977;28;20626;-50
2022/02/26 08:00:43;;;;;;;18.42;4.25;;;;;;;6.54;65.41;103078.22;5000169;28;21054;-49
2022/02/26 08:03:09;;;;;;;15.43;4.32;;;;;;;6.55;65.21;103077.22;5000108;28;20038;-47
2022/02/26 08:05:35;;;;;;;14.63;3.50;;;;;;;6.52;65.44;103087.38;4999206;28;20048;-50
2022/02/26 08:08:00;;;;;;;11.18;3.30;;;;;;;6.50;65.55;103084.88;5002034;28;20034;-49
2022/02/26 08:10:27;;;;;;;16.60;3.80;;;;;;;6.53;65.51;103087.22;4996663;28;20084;-46
2022/02/26 08:12:54;;;;;;;18.92;4.60;;;;;;;6.58;65.49;103100.88;5000782;28;20054;-47
2022/02/26 08:15:21;;;;;;;16.15;3.45;;;;;;;6.63;65.11;103100.38;5002708;28;20382;-46
2022/02/26 08:17:47;;;;;;;13.80;4.35;;;;;;;6.63;64.90;103103.84;5001077;28;20163;-47
2022/02/26 08:20:15;;;;;;;13.02;4.70;;;;;;;6.59;65.52;103105.19;5001675;28;20462;-47
2022/02/26 08:22:41;;;;;;;16.48;3.58;;;;;;;6.56;65.58;103107.34;5004886;28;20034;-50
2022/02/26 08:25:09;;;;;;;15.00;3.92;;;;;;;6.59;65.21;103115.00;5002991;28;20022;-47
2022/02/26 08:27:34;;;;;;;14.52;4.32;;;;;;;6.63;65.13;103116.34;4998901;28;20030;-48
2022/02/26 08:30:00;;;;;;;13.63;4.07;;;;;;;6.66;65.26;103124.03;4998795;28;20041;-50
2022/02/26 08:32:25;;;;;;;19.10;4.47;;;;;;;6.70;65.12;103129.88;5001481;28;20101;-48
2022/02/26 08:34:51;;;;;;;14.13;4.75;;;;;;;6.70;64.97;103133.34;5001543;28;20498;-50
2022/02/26 08:37:17;;;;;;;13.45;4.25;;;;;;;6.68;65.40;103134.53;5002282;28;20108;-50
2022/02/26 08:39:42;;;;;;;17.48;4.25;;;;;;;6.66;65.44;103142.69;4997386;28;20045;-48
2022/02/26 08:42:08;;;;;;;16.73;4.53;;;;;;;6.65;65.17;103147.19;5001711;28;20061;-51
2022/02/26 08:44:34;;;;;;;15.35;3.70;;;;;;;6.64;65.18;103149.97;5001192;28;20096;-48
2022/02/26 08:47:00;;;;;;;12.07;2.92;;;;;;;6.65;65.36;103151.69;5001062;28;20419;-49
2022/02/26 08:49:26;;;;;;;15.63;3.40;;;;;;;6.64;65.37;103158.84;5003345;28;20052;-50
2022/02/26 08:51:52;;;;;;;14.52;2.95;;;;;;;6.60;65.42;103165.47;5000930;28;20445;-47
2022/02/26 08:54:18;;;;;;;12.43;2.80;;;;;;;6.61;65.86;103171.63;5001420;28;20038;-47
2022/02/26 08:56:45;;;;;;;14.60;3.10;;;;;;;6.61;65.56;103172.44;5003329;28;20022;-52
2022/02/26 08:59:11;;;;;;;14.55;2.78;;;;;;;6.64;65.34;103184.59;5002180;28;20305;-51
2022/02/26 09:01:37;;;;;;;15.52;3.72;;;;;;;6.64;65.66;103185.47;5000482;28;20479;-50
2022/02/26 09:04:03;;;;;;;9.40;2.78;;;;;;;6.62;65.56;103190.09;5002680;28;20053;-50
2022/02/26 09:06:28;;;;;;;8.77;2.35;;;;;;;6.62;65.90;103191.94;4999725;28;20071;-50
2022/02/26 09:08:54;;;;;;;11.18;2.50;;;;;;;6.60;65.98;103191.25;5002542;28;20100;-49
2022/02/26 09:11:20;;;;;;;10.88;2.88;;;;;;;6.63;65.78;103201.59;5003757;28;20030;-48
2022/02/26 09:13:46;;;;;;;9.88;2.90;;;;;;;6.63;65.74;103204.25;5003127;28;20515;-49
2022/02/26 09:16:13;;;;;;;9.45;2.85;;;;;;;6.60;65.98;103202.75;4998620;28;20506;-46
2022/02/26 09:18:39;;;;;;;10.50;2.45;;;;;;;6.59;65.92;103222.41;4997766;28;20802;-48
2022/02/26 09:21:06;;;;;;;8.48;2.97;;;;;;;6.60;66.16;103223.22;5000318;28;20061;-51
2022/02/26 09:23:32;;;;;;;20.05;3.17;;;;;;;6.62;65.98;103226.56;5002363;28;20034;-46
2022/02/26 09:25:58;;;;;;;13.13;2.55;;;;;;;6.61;66.56;103225.72;5006835;28;20507;-47
2022/02/26 09:28:23;;;;;;;10.38;3.40;;;;;;;6.65;66.16;103236.94;5009775;28;20061;-49
2022/02/26 09:30:50;;;;;;;10.13;2.35;;;;;;;6.68;66.27;103228.59;5002465;28;20021;-49
2022/02/26 09:33:15;;;;;;;11.85;3.17;;;;;;;6.70;66.25;103234.59;5007526;28;20022;-47
2022/02/26 09:35:41;;;;;;;13.10;3.33;;;;;;;6.72;66.37;103235.28;5003298;28;20043;-49
2022/02/26 09:38:07;;;;;;;13.95;3.45;;;;;;;6.76;66.16;103243.75;5006695;28;20068;-49
2022/02/26 09:40:33;;;;;;;9.65;3.42;;;;;;;6.78;66.22;103247.94;5002060;28;20030;-48
2022/02/26 09:43:01;;;;;;;13.55;2.97;;;;;;;6.80;66.17;103256.59;5005666;28;20030;-47
2022/02/26 09:45:27;;;;;;;11.20;3.67;;;;;;;6.83;66.05;103252.81;5002095;28;20030;-49
2022/02/26 09:47:52;;;;;;;11.52;3.58;;;;;;;6.86;66.40;103263.13;5000902;28;20037;-48
2022/02/26 09:50:18;;;;;;;18.60;4.50;;;;;;;6.90;66.27;103267.97;5004183;28;20120;-50
2022/02/26 09:52:47;;;;;;;17.42;4.32;;;;;;;6.97;65.97;103271.63;5004770;28;20492;-49
2022/02/26 09:55:13;;;;;;;14.10;4.72;;;;;;;7.04;66.29;103276.34;5007203;28;20384;-49
2022/02/26 09:57:39;;;;;;;13.93;3.88;;;;;;;7.08;66.13;103275.00;5003316;28;20036;-50
2022/02/26 10:00:07;;;;;;;13.02;3.63;;;;;;;7.11;66.40;103274.69;5001429;28;20107;-47
2022/02/26 10:02:35;;;;;;;10.27;3.78;;;;;;;7.11;66.23;103278.19;5004020;28;20089;-47
2022/02/26 10:05:03;;;;;;;10.02;4.15;;;;;;;7.17;66.45;103279.34;5000785;28;20018;-48
2022/02/26 10:07:33;;;;;;;13.85;3.58;;;;;;;7.22;66.36;103279.72;4999895;28;20453;-47
2022/02/26 10:09:59;;;;;;;17.10;3.85;;;;;;;7.23;66.40;103284.03;5001174;28;20029;-52
2022/02/26 10:12:33;;;;;;;12.73;3.22;;;;;;;7.23;66.29;103278.72;5001914;28;20038;-47
2022/02/26 10:15:05;;;;;;;18.65;3.33;;;;;;;7.29;65.96;103280.72;5003229;28;20105;-48
2022/02/26 10:17:38;;;;;;;25.77;12.93;;;;;;;7.39;65.94;103283.25;4996974;28;20076;-52
2022/02/26 10:20:14;;;;;;;29.15;12.60;;;;;;;7.51;66.04;103289.91;4998867;28;20219;-50
2022/02/26 10:22:42;;;;;;;17.08;7.38;;;;;;;7.62;66.04;103284.25;5004188;28;20451;-51
2022/02/26 10:25:11;;;;;;;16.35;4.53;;;;;;;7.63;65.91;103290.41;4999628;28;20026;-49
2022/02/26 10:27:45;;;;;;;11.00;3.75;;;;;;;7.65;65.60;103296.41;4999450;28;20080;-54
2022/02/26 10:30:35;;;;;;;14.35;3.92;;;;;;;7.60;65.48;103301.44;5001628;28;20561;-47
2022/02/26 10:33:14;;;;;;;13.63;3.78;;;;;;;7.63;65.58;103295.75;5003516;28;20049;-46
2022/02/26 10:35:54;;;;;;;9.68;2.72;;;;;;;7.66;65.66;103293.59;4998837;28;20517;-46
2022/02/26 10:38:21;;;;;;;7.75;3.00;;;;;;;7.74;65.66;103298.94;4994448;28;20026;-45
2022/02/26 10:41:00;;;;;;;7.78;3.05;;;;;;;7.76;65.23;103291.59;5000369;28;20033;-45
2022/02/26 10:43:40;;;;;;;10.85;3.47;;;;;;;7.71;65.44;103298.41;5003219;28;20109;-45
2022/02/26 10:46:28;;;;;;;9.70;3.53;;;;;;;7.68;65.49;103294.25;5002828;28;20044;-46
2022/02/26 10:49:00;;;;;;;8.80;2.92;;;;;;;7.73;65.35;103301.78;5002954;28;20756;-46
2022/02/26 10:51:35;;;;;;;11.90;3.53;;;;;;;7.73;65.12;103299.09;5002558;28;20396;-45
2022/02/26 10:54:02;;;;;;;15.15;2.35;;;;;;;7.72;65.02;103300.06;5005775;28;20049;-48
2022/02/26 10:56:34;;;;;;;11.65;3.00;;;;;;;7.65;65.49;103299.09;4999531;28;20033;-46
2022/02/26 10:59:01;;;;;;;6.70;2.28;;;;;;;7.66;65.65;103300.75;5003843;28;20109;-46
2022/02/26 11:01:26;;;;;;;20.50;3.30;;;;;;;7.69;65.45;103295.06;5004268;28;20030;-47
2022/02/26 11:03:56;;;;;;;9.93;2.75;;;;;;;7.65;65.71;103310.59;5000822;28;20032;-46
2022/02/26 11:06:22;;;;;;;7.10;2.13;;;;;;;7.61;65.65;103311.09;4998998;28;20075;-47
2022/02/26 11:08:50;;;;;;;7.40;2.65;;;;;;;7.64;65.76;103313.44;5003315;28;20037;-47
2022/02/26 11:11:17;;;;;;;7.30;2.53;;;;;;;7.71;65.38;103312.59;5003939;28;20068;-48
2022/02/26 11:13:44;;;;;;;8.43;2.40;;;;;;;7.79;65.21;103317.09;5000002;28;20038;-45
2022/02/26 11:16:11;;;;;;;9.20;1.95;;;;;;;7.82;65.21;103319.44;5002586;28;20037;-46
2022/02/26 11:18:39;;;;;;;13.52;2.50;;;;;;;7.86;65.40;103323.44;5003265;28;20033;-46
2022/02/26 11:21:08;;;;;;;7.95;2.22;;;;;;;7.85;64.94;103322.59;5003571;28;20038;-45